AirNav   SIMCOM
 
 1025 users online  

TN42 Valley View Assisted Living Heliport
Whitwell, Tennessee, USA

GOING TO WHITWELL?


FAA INFORMATION EFFECTIVE 20 JULY 2017

Location

FAA Identifier: TN42
Lat/Long: 35-12-10.2670N / 085-31-09.8750W
35-12.171117N / 085-31.164583W
35.2028519 / -85.5194097
(estimated)
Elevation: 750 ft. / 229 m (estimated)
Variation: 01W (1985)
From city: 1 mile E of WHITWELL, TN
Time zone: UTC -5 (UTC -6 during Standard Time)
Zip code: 37397

Heliport Operations

Heliport use: Private use, MEDICAL USE
Activation date: 04/1990
Control tower: no
ARTCC: MEMPHIS CENTER
FSS: NASHVILLE FLIGHT SERVICE STATION
Attendance: UNATNDD
Segmented circle: no
Lights: FOR PERIMETER LGTS CALL 615-658-2101.

Heliport Communications

WX ASOS at CHA (18 nm SE): PHONE 423-499-5973

Nearby radio navigation aids

VOR radial/distance  VOR name  Freq  Var
GQOr308/23.1CHOO CHOO VORTAC115.8001E
UXMr110/(37.1)TULLAHOMA REGIONAL VOR109.6503W

 
NDB name  Hdg/Dist  Freq  Var  ID
JASPER022/9.238202WAPT .- .--. -
DAISY279/17.934102WCQN -.-. --.- -.
BOILING FORK090/26.926303WBGF -... --. ..-.
MARK ANTON244/33.339404WDTE -.. - .
BURWI117/38.633203WULH ..- .-.. ....

Heliport Services

Runway Information

Helipad H1

Dimensions: 24 x 24 ft. / 7 x 7 m
Surface: concrete
Runway edge lights: PERIMETER LIGHTS.
Traffic pattern: leftleft

Heliport Ownership and Management from official FAA records

Ownership: Privately-owned
Owner: VALLEY VIEW OF WHITWELL
101 NORTH MAPLE ST
WHITWELL, TN 37397
Phone 423-658-0100
Manager: DARLENE AUSTIN
101 NORTH MAPLE ST
WHITWELL, TN 37397
Phone 423-658-0100

Instrument Procedures

There are no published instrument procedures at TN42.

Some nearby airports with instrument procedures:

KAPT - Marion County Airport-Brown Field (9 nm S)
KCHA - Lovell Field Airport (18 nm SE)
KBGF - Winchester Municipal Airport (27 nm W)
9A5 - Barwick Lafayette Airport (33 nm S)
2A0 - Mark Anton Airport (33 nm NE)
 
Loc | Ops | Rwys | IFR | FBO | Links
Com | Nav | Svcs | Stats | Notes


 
Area around TN42 (Valley View Assisted Living Heliport)
 
Road maps at: MapQuest Bing Google
 
Aerial photo
No photo
 
Sectional chart

 
Airport distance calculator
Flying to Valley View Assisted Living Heliport? Find the distance to fly.

From to TN42

Sunrise and sunset
Times for 25-Jul-2017
 Local
(UTC-5)
 Zulu
(UTC)
Morning civil twilight05:1810:18
Sunrise05:4710:47
Sunset19:5000:50
Evening civil twilight20:1901:19

Current date and time
Zulu (UTC)  25-Jul-2017 12:40:48
Local (UTC-5)  25-Jul-2017 07:40:48
 
METAR
KCHA 
19nm SE 
251153Z 00000KT 10SM FEW007 BKN250 24/23 A3010 RMK AO2 SLP185 T02440228 10256 20239 53014 $
KBGF 
27nm W 
251215Z AUTO 00000KT 10SM CLR 22/21 A3013 RMK
K9A5 
33nm S 
251215Z AUTO 00000KT 1 1/2SM OVC002 21/20 A3011 RMK AO2 T02100197
KRNC 
34nm NW 
251215Z AUTO 00000KT 10SM CLR 23/23 A3013 RMK
KRZR 
35nm E 
251215Z AUTO 1SM BR OVC004 24/23 A3010 RMK A01
KTHA 
37nm W 
251215Z AUTO 00000KT 10SM CLR 22/21 A3014 RMK
TAF
KCHA 
19nm SE 
251130Z 2512/2612 36005KT P6SM SCT045 FM260100 00000KT P6SM FEW060
NOTAMs
Click for the latest NOTAMs
NOTAMs are issued by the DoD/FAA and will open in a separate window not controlled by AirNav.

 

 
 

Would you like to see your business listed on this page?

 If your business provides an interesting product or service to pilots, flight crews, aircraft, or users of the Valley View Assisted Living Heliport, you should consider listing it here.  To start the listing process, click on the button below
 
Add a business
 

Other Pages about Valley View Assisted Living Heliport

Update a link
 
Copyright © AirNav, LLC. All rights reserved. Privacy Policy  Contact